sensor_id;sensor_type;location;lat;lon;timestamp;noise_LAeq;noise_LA_min;noise_LA_max;noise_LA01;noise_LA95
186;Laerm;55473;48.800;9.002;2024-01-07T00:01:48;37.78;34.45;44.98;;
186;Laerm;55473;48.800;9.002;2024-01-07T00:04:18;37.86;34.43;54.86;;
186;Laerm;55473;48.800;9.002;2024-01-07T00:06:45;36.32;34.19;44.06;;
186;Laerm;55473;48.800;9.002;2024-01-07T00:09:12;38.40;34.28;47.46;;
186;Laerm;55473;48.800;9.002;2024-01-07T00:11:41;37.63;34.60;47.53;;
186;Laerm;55473;48.800;9.002;2024-01-07T00:14:07;44.89;35.56;56.35;;
186;Laerm;55473;48.800;9.002;2024-01-07T00:16:32;41.76;34.99;57.83;;
186;Laerm;55473;48.800;9.002;2024-01-07T00:19:00;44.55;35.07;56.34;;
186;Laerm;55473;48.800;9.002;2024-01-07T00:21:25;37.40;34.25;44.71;;
186;Laerm;55473;48.800;9.002;2024-01-07T00:23:51;37.40;34.46;47.06;;
186;Laerm;55473;48.800;9.002;2024-01-07T00:26:17;38.50;34.13;64.83;;
186;Laerm;55473;48.800;9.002;2024-01-07T00:28:43;36.99;34.23;56.02;;
186;Laerm;55473;48.800;9.002;2024-01-07T00:31:12;36.40;34.08;43.73;;
186;Laerm;55473;48.800;9.002;2024-01-07T00:33:38;36.73;34.20;45.01;;
186;Laerm;55473;48.800;9.002;2024-01-07T00:36:04;36.82;34.43;47.96;;
186;Laerm;55473;48.800;9.002;2024-01-07T00:38:30;36.79;34.17;45.51;;
186;Laerm;55473;48.800;9.002;2024-01-07T00:40:56;36.61;34.31;41.75;;
186;Laerm;55473;48.800;9.002;2024-01-07T00:43:22;40.99;34.21;52.39;;
186;Laerm;55473;48.800;9.002;2024-01-07T00:45:48;40.18;34.48;54.00;;
186;Laerm;55473;48.800;9.002;2024-01-07T00:48:14;38.08;34.47;44.23;;
186;Laerm;55473;48.800;9.002;2024-01-07T00:50:40;37.31;34.30;47.35;;
186;Laerm;55473;48.800;9.002;2024-01-07T00:53:06;36.78;34.27;46.64;;
186;Laerm;55473;48.800;9.002;2024-01-07T00:55:32;37.13;33.92;46.54;;
186;Laerm;55473;48.800;9.002;2024-01-07T00:57:58;37.46;34.22;43.94;;
186;Laerm;55473;48.800;9.002;2024-01-07T01:00:24;36.04;33.91;42.88;;
186;Laerm;55473;48.800;9.002;2024-01-07T01:02:50;36.89;34.33;48.45;;
186;Laerm;55473;48.800;9.002;2024-01-07T01:05:16;36.45;34.11;44.50;;
186;Laerm;55473;48.800;9.002;2024-01-07T01:07:41;36.29;34.00;47.34;;
186;Laerm;55473;48.800;9.002;2024-01-07T01:10:08;37.19;34.13;47.02;;
186;Laerm;55473;48.800;9.002;2024-01-07T01:12:34;39.04;34.17;61.17;;
186;Laerm;55473;48.800;9.002;2024-01-07T01:15:00;36.54;34.14;43.58;;
186;Laerm;55473;48.800;9.002;2024-01-07T01:17:26;37.69;34.31;45.76;;
186;Laerm;55473;48.800;9.002;2024-01-07T01:19:52;44.40;34.72;54.58;;
186;Laerm;55473;48.800;9.002;2024-01-07T01:22:18;37.22;34.36;46.36;;
186;Laerm;55473;48.800;9.002;2024-01-07T01:24:44;36.50;34.28;49.40;;
186;Laerm;55473;48.800;9.002;2024-01-07T01:27:14;36.84;34.20;47.60;;
186;Laerm;55473;48.800;9.002;2024-01-07T01:29:41;36.22;34.10;41.30;;
186;Laerm;55473;48.800;9.002;2024-01-07T01:32:07;36.05;33.93;45.62;;
186;Laerm;55473;48.800;9.002;2024-01-07T01:34:33;35.97;34.03;44.24;;
186;Laerm;55473;48.800;9.002;2024-01-07T01:36:58;36.32;34.32;46.10;;
186;Laerm;55473;48.800;9.002;2024-01-07T01:39:24;36.06;33.61;45.15;;
186;Laerm;55473;48.800;9.002;2024-01-07T01:41:50;36.83;34.28;45.13;;
186;Laerm;55473;48.800;9.002;2024-01-07T01:44:16;44.21;34.60;56.39;;
186;Laerm;55473;48.800;9.002;2024-01-07T01:46:45;39.21;34.37;53.59;;
186;Laerm;55473;48.800;9.002;2024-01-07T01:49:11;37.49;34.33;46.31;;
186;Laerm;55473;48.800;9.002;2024-01-07T01:51:38;37.08;34.31;46.91;;
186;Laerm;55473;48.800;9.002;2024-01-07T01:54:04;37.07;34.24;52.47;;
186;Laerm;55473;48.800;9.002;2024-01-07T01:56:31;36.22;34.20;43.15;;
186;Laerm;55473;48.800;9.002;2024-01-07T01:58:59;36.78;33.98;42.86;;
186;Laerm;55473;48.800;9.002;2024-01-07T02:01:26;37.12;34.27;48.49;;
186;Laerm;55473;48.800;9.002;2024-01-07T02:03:52;36.46;34.12;43.22;;
186;Laerm;55473;48.800;9.002;2024-01-07T02:06:20;37.59;33.95;49.94;;
186;Laerm;55473;48.800;9.002;2024-01-07T02:08:47;37.13;34.14;45.47;;
186;Laerm;55473;48.800;9.002;2024-01-07T02:11:22;36.87;34.17;46.94;;
186;Laerm;55473;48.800;9.002;2024-01-07T02:13:48;36.30;34.13;44.53;;
186;Laerm;55473;48.800;9.002;2024-01-07T02:16:14;37.27;34.12;48.67;;
186;Laerm;55473;48.800;9.002;2024-01-07T02:18:43;44.57;34.98;56.82;;
186;Laerm;55473;48.800;9.002;2024-01-07T02:21:11;36.28;34.31;43.14;;
186;Laerm;55473;48.800;9.002;2024-01-07T02:23:37;36.88;33.47;58.35;;
186;Laerm;55473;48.800;9.002;2024-01-07T02:26:03;36.71;34.16;43.84;;
186;Laerm;55473;48.800;9.002;2024-01-07T02:28:31;36.12;33.67;47.34;;
186;Laerm;55473;48.800;9.002;2024-01-07T02:30:57;37.03;34.02;46.27;;
186;Laerm;55473;48.800;9.002;2024-01-07T02:33:23;36.52;34.00;48.75;;
186;Laerm;55473;48.800;9.002;2024-01-07T02:35:49;36.35;33.83;44.76;;
186;Laerm;55473;48.800;9.002;2024-01-07T02:38:15;36.45;34.41;42.19;;
186;Laerm;55473;48.800;9.002;2024-01-07T02:40:41;36.17;34.18;42.34;;
186;Laerm;55473;48.800;9.002;2024-01-07T02:43:07;36.18;33.92;47.96;;
186;Laerm;55473;48.800;9.002;2024-01-07T02:45:33;41.42;34.63;53.50;;
186;Laerm;55473;48.800;9.002;2024-01-07T02:47:59;41.98;34.27;54.44;;
186;Laerm;55473;48.800;9.002;2024-01-07T02:50:25;38.45;33.92;47.26;;
186;Laerm;55473;48.800;9.002;2024-01-07T02:52:51;36.32;34.00;44.64;;
186;Laerm;55473;48.800;9.002;2024-01-07T02:55:18;36.31;34.10;45.95;;
186;Laerm;55473;48.800;9.002;2024-01-07T02:57:44;36.03;34.03;42.78;;
186;Laerm;55473;48.800;9.002;2024-01-07T03:00:10;36.15;34.05;45.50;;
186;Laerm;55473;48.800;9.002;2024-01-07T03:02:36;36.23;34.03;47.18;;
186;Laerm;55473;48.800;9.002;2024-01-07T03:05:02;36.66;34.21;47.34;;
186;Laerm;55473;48.800;9.002;2024-01-07T03:07:28;36.07;33.63;47.20;;
186;Laerm;55473;48.800;9.002;2024-01-07T03:09:54;36.09;33.96;43.68;;
186;Laerm;55473;48.800;9.002;2024-01-07T03:12:19;36.18;33.91;45.80;;
186;Laerm;55473;48.800;9.002;2024-01-07T03:14:45;36.10;34.19;45.65;;
186;Laerm;55473;48.800;9.002;2024-01-07T03:17:11;40.61;33.94;52.82;;
186;Laerm;55473;48.800;9.002;2024-01-07T03:19:38;37.98;33.84;45.00;;
186;Laerm;55473;48.800;9.002;2024-01-07T03:22:04;36.07;34.14;45.36;;
186;Laerm;55473;48.800;9.002;2024-01-07T03:24:33;36.03;33.78;45.56;;
186;Laerm;55473;48.800;9.002;2024-01-07T03:26:59;36.07;33.81;46.73;;
186;Laerm;55473;48.800;9.002;2024-01-07T03:29:24;36.14;34.08;43.52;;
186;Laerm;55473;48.800;9.002;2024-01-07T03:31:50;36.01;33.96;44.00;;
186;Laerm;55473;48.800;9.002;2024-01-07T03:34:17;36.06;34.05;43.75;;
186;Laerm;55473;48.800;9.002;2024-01-07T03:36:42;36.05;33.96;44.47;;
186;Laerm;55473;48.800;9.002;2024-01-07T03:39:08;36.43;34.29;47.25;;
186;Laerm;55473;48.800;9.002;2024-01-07T03:41:34;37.00;33.74;45.54;;
186;Laerm;55473;48.800;9.002;2024-01-07T03:44:00;43.19;34.28;54.82;;
186;Laerm;55473;48.800;9.002;2024-01-07T03:46:26;36.82;34.24;46.35;;
186;Laerm;55473;48.800;9.002;2024-01-07T03:48:52;38.09;34.43;47.10;;
186;Laerm;55473;48.800;9.002;2024-01-07T03:51:17;37.33;34.09;45.51;;
186;Laerm;55473;48.800;9.002;2024-01-07T03:53:43;36.67;33.99;46.05;;
186;Laerm;55473;48.800;9.002;2024-01-07T03:56:09;36.88;34.10;50.63;;
186;Laerm;55473;48.800;9.002;2024-01-07T03:58:35;36.81;33.82;47.79;;
186;Laerm;55473;48.800;9.002;2024-01-07T04:01:01;36.91;34.06;44.59;;
186;Laerm;55473;48.800;9.002;2024-01-07T04:03:27;37.30;34.05;45.81;;
186;Laerm;55473;48.800;9.002;2024-01-07T04:05:53;41.59;34.37;58.73;;
186;Laerm;55473;48.800;9.002;2024-01-07T04:08:19;36.58;34.31;44.56;;
186;Laerm;55473;48.800;9.002;2024-01-07T04:10:44;36.55;34.24;44.26;;
186;Laerm;55473;48.800;9.002;2024-01-07T04:13:10;36.59;34.20;45.45;;
186;Laerm;55473;48.800;9.002;2024-01-07T04:15:36;37.38;34.31;50.57;;
186;Laerm;55473;48.800;9.002;2024-01-07T04:18:03;39.62;34.09;49.00;;
186;Laerm;55473;48.800;9.002;2024-01-07T04:20:30;38.40;34.35;50.08;;
186;Laerm;55473;48.800;9.002;2024-01-07T04:22:57;37.67;34.13;55.98;;
186;Laerm;55473;48.800;9.002;2024-01-07T04:25:26;37.14;33.96;51.12;;
186;Laerm;55473;48.800;9.002;2024-01-07T04:27:52;37.31;34.23;46.15;;
186;Laerm;55473;48.800;9.002;2024-01-07T04:30:18;37.00;33.72;47.96;;
186;Laerm;55473;48.800;9.002;2024-01-07T04:32:44;36.63;34.13;45.06;;
186;Laerm;55473;48.800;9.002;2024-01-07T04:35:10;37.11;34.30;45.68;;
186;Laerm;55473;48.800;9.002;2024-01-07T04:37:37;36.97;34.42;46.24;;
186;Laerm;55473;48.800;9.002;2024-01-07T04:40:03;36.67;34.04;44.82;;
186;Laerm;55473;48.800;9.002;2024-01-07T04:42:29;39.13;34.45;51.99;;
186;Laerm;55473;48.800;9.002;2024-01-07T04:44:54;40.35;34.79;57.50;;
186;Laerm;55473;48.800;9.002;2024-01-07T04:47:32;37.64;34.08;53.01;;
186;Laerm;55473;48.800;9.002;2024-01-07T04:50:02;37.44;34.32;48.70;;
186;Laerm;55473;48.800;9.002;2024-01-07T04:52:29;37.34;34.13;48.00;;
186;Laerm;55473;48.800;9.002;2024-01-07T04:54:56;37.21;34.27;43.92;;
186;Laerm;55473;48.800;9.002;2024-01-07T04:57:22;37.57;34.43;47.74;;
186;Laerm;55473;48.800;9.002;2024-01-07T04:59:50;38.12;34.65;46.65;;
186;Laerm;55473;48.800;9.002;2024-01-07T05:02:15;37.23;34.14;48.65;;
186;Laerm;55473;48.800;9.002;2024-01-07T05:04:42;37.20;34.28;43.81;;
186;Laerm;55473;48.800;9.002;2024-01-07T05:07:08;37.01;34.28;46.36;;
186;Laerm;55473;48.800;9.002;2024-01-07T05:09:34;37.18;34.64;44.84;;
186;Laerm;55473;48.800;9.002;2024-01-07T05:12:00;37.52;34.43;45.24;;
186;Laerm;55473;48.800;9.002;2024-01-07T05:14:27;37.52;34.82;48.55;;
186;Laerm;55473;48.800;9.002;2024-01-07T05:16:56;40.12;34.90;49.25;;
186;Laerm;55473;48.800;9.002;2024-01-07T05:19:22;39.64;34.55;48.31;;
186;Laerm;55473;48.800;9.002;2024-01-07T05:21:48;38.08;34.77;52.71;;
186;Laerm;55473;48.800;9.002;2024-01-07T05:24:14;37.43;34.36;44.19;;
186;Laerm;55473;48.800;9.002;2024-01-07T05:26:42;37.65;34.71;46.58;;
186;Laerm;55473;48.800;9.002;2024-01-07T05:29:09;37.66;34.72;47.97;;
186;Laerm;55473;48.800;9.002;2024-01-07T05:31:35;37.53;34.40;53.89;;
186;Laerm;55473;48.800;9.002;2024-01-07T05:34:01;36.64;34.44;45.15;;
186;Laerm;55473;48.800;9.002;2024-01-07T05:36:26;37.06;34.46;47.38;;
186;Laerm;55473;48.800;9.002;2024-01-07T05:38:52;38.50;35.29;47.14;;
186;Laerm;55473;48.800;9.002;2024-01-07T05:41:18;39.29;34.59;50.66;;
186;Laerm;55473;48.800;9.002;2024-01-07T05:43:44;40.24;35.86;48.75;;
186;Laerm;55473;48.800;9.002;2024-01-07T05:46:10;38.64;35.64;55.37;;
186;Laerm;55473;48.800;9.002;2024-01-07T05:48:45;43.34;35.17;61.07;;
186;Laerm;55473;48.800;9.002;2024-01-07T05:51:13;37.68;35.23;56.22;;
186;Laerm;55473;48.800;9.002;2024-01-07T05:53:39;39.49;34.98;63.04;;
186;Laerm;55473;48.800;9.002;2024-01-07T05:56:06;37.67;35.17;57.64;;
186;Laerm;55473;48.800;9.002;2024-01-07T05:58:33;40.29;35.25;66.70;;
186;Laerm;55473;48.800;9.002;2024-01-07T06:00:59;42.64;36.18;64.16;;
186;Laerm;55473;48.800;9.002;2024-01-07T06:03:26;41.95;35.25;63.05;;
186;Laerm;55473;48.800;9.002;2024-01-07T06:05:52;41.53;35.75;62.20;;
186;Laerm;55473;48.800;9.002;2024-01-07T06:08:18;42.71;36.46;66.43;;
186;Laerm;55473;48.800;9.002;2024-01-07T06:10:44;41.35;35.95;63.44;;
186;Laerm;55473;48.800;9.002;2024-01-07T06:13:10;42.99;35.79;67.28;;
186;Laerm;55473;48.800;9.002;2024-01-07T06:15:36;40.83;36.19;66.30;;
186;Laerm;55473;48.800;9.002;2024-01-07T06:18:02;43.93;36.09;63.90;;
186;Laerm;55473;48.800;9.002;2024-01-07T06:20:28;41.88;34.94;67.93;;
186;Laerm;55473;48.800;9.002;2024-01-07T06:22:54;41.42;34.80;64.86;;
186;Laerm;55473;48.800;9.002;2024-01-07T06:25:20;40.70;34.88;65.64;;
186;Laerm;55473;48.800;9.002;2024-01-07T06:27:46;40.86;34.87;65.59;;
186;Laerm;55473;48.800;9.002;2024-01-07T06:30:12;41.16;34.97;65.04;;
186;Laerm;55473;48.800;9.002;2024-01-07T06:32:39;41.68;34.19;69.83;;
186;Laerm;55473;48.800;9.002;2024-01-07T06:35:05;40.61;34.67;61.91;;
186;Laerm;55473;48.800;9.002;2024-01-07T06:37:31;40.48;34.82;58.96;;
186;Laerm;55473;48.800;9.002;2024-01-07T06:39:57;44.31;34.81;71.74;;
186;Laerm;55473;48.800;9.002;2024-01-07T06:42:26;40.73;35.07;64.00;;
186;Laerm;55473;48.800;9.002;2024-01-07T06:44:52;45.59;35.28;65.71;;
186;Laerm;55473;48.800;9.002;2024-01-07T06:47:18;46.99;35.65;65.16;;
186;Laerm;55473;48.800;9.002;2024-01-07T06:49:44;41.80;35.78;60.09;;
186;Laerm;55473;48.800;9.002;2024-01-07T06:52:10;39.29;35.42;52.93;;
186;Laerm;55473;48.800;9.002;2024-01-07T06:54:36;39.48;34.74;59.42;;
186;Laerm;55473;48.800;9.002;2024-01-07T06:57:04;42.04;35.33;64.45;;
186;Laerm;55473;48.800;9.002;2024-01-07T06:59:30;44.05;34.92;60.76;;
186;Laerm;55473;48.800;9.002;2024-01-07T07:01:56;45.76;34.93;75.55;;
186;Laerm;55473;48.800;9.002;2024-01-07T07:04:22;38.98;34.73;57.29;;
186;Laerm;55473;48.800;9.002;2024-01-07T07:06:48;40.79;35.08;67.94;;
186;Laerm;55473;48.800;9.002;2024-01-07T07:09:14;43.59;35.00;62.64;;
186;Laerm;55473;48.800;9.002;2024-01-07T07:11:41;42.31;35.84;67.31;;
186;Laerm;55473;48.800;9.002;2024-01-07T07:14:07;41.44;35.17;58.78;;
186;Laerm;55473;48.800;9.002;2024-01-07T07:16:33;46.84;36.03;61.61;;
186;Laerm;55473;48.800;9.002;2024-01-07T07:18:59;48.47;36.53;64.75;;
186;Laerm;55473;48.800;9.002;2024-01-07T07:21:25;43.11;35.42;61.38;;
186;Laerm;55473;48.800;9.002;2024-01-07T07:23:52;41.36;35.02;68.67;;
186;Laerm;55473;48.800;9.002;2024-01-07T07:26:18;41.61;35.76;58.48;;
186;Laerm;55473;48.800;9.002;2024-01-07T07:28:44;40.23;34.80;56.46;;
186;Laerm;55473;48.800;9.002;2024-01-07T07:31:13;41.27;34.83;65.40;;
186;Laerm;55473;48.800;9.002;2024-01-07T07:33:41;41.63;34.97;62.57;;
186;Laerm;55473;48.800;9.002;2024-01-07T07:36:07;41.53;35.67;63.07;;
186;Laerm;55473;48.800;9.002;2024-01-07T07:38:33;40.86;35.46;62.35;;
186;Laerm;55473;48.800;9.002;2024-01-07T07:41:00;41.87;36.48;59.84;;
186;Laerm;55473;48.800;9.002;2024-01-07T07:43:26;46.04;37.04;67.46;;
186;Laerm;55473;48.800;9.002;2024-01-07T07:45:52;45.05;36.95;66.29;;
186;Laerm;55473;48.800;9.002;2024-01-07T07:48:19;46.92;36.69;64.75;;
186;Laerm;55473;48.800;9.002;2024-01-07T07:50:45;43.24;35.76;60.03;;
186;Laerm;55473;48.800;9.002;2024-01-07T07:53:11;44.20;35.65;64.82;;
186;Laerm;55473;48.800;9.002;2024-01-07T07:55:37;43.82;35.75;63.43;;
186;Laerm;55473;48.800;9.002;2024-01-07T07:58:03;43.57;34.61;67.44;;
186;Laerm;55473;48.800;9.002;2024-01-07T08:00:29;43.23;36.91;64.82;;
186;Laerm;55473;48.800;9.002;2024-01-07T08:02:54;43.50;36.12;59.85;;
186;Laerm;55473;48.800;9.002;2024-01-07T08:05:20;46.35;37.92;66.25;;
186;Laerm;55473;48.800;9.002;2024-01-07T08:07:46;45.04;37.77;65.88;;
186;Laerm;55473;48.800;9.002;2024-01-07T08:10:12;42.91;36.43;66.16;;
186;Laerm;55473;48.800;9.002;2024-01-07T08:12:38;44.99;36.57;61.01;;
186;Laerm;55473;48.800;9.002;2024-01-07T08:15:06;43.72;36.78;64.42;;
186;Laerm;55473;48.800;9.002;2024-01-07T08:17:32;44.65;35.81;65.21;;
186;Laerm;55473;48.800;9.002;2024-01-07T08:19:58;45.59;36.31;67.39;;
186;Laerm;55473;48.800;9.002;2024-01-07T08:22:23;42.83;36.32;62.86;;
186;Laerm;55473;48.800;9.002;2024-01-07T08:24:49;43.25;37.36;66.41;;
186;Laerm;55473;48.800;9.002;2024-01-07T08:27:16;47.06;35.63;64.68;;
186;Laerm;55473;48.800;9.002;2024-01-07T08:29:45;41.15;36.54;56.34;;
186;Laerm;55473;48.800;9.002;2024-01-07T08:32:11;47.54;37.75;58.67;;
186;Laerm;55473;48.800;9.002;2024-01-07T08:34:39;49.26;36.93;70.22;;
186;Laerm;55473;48.800;9.002;2024-01-07T08:37:07;41.09;35.87;54.94;;
186;Laerm;55473;48.800;9.002;2024-01-07T08:39:34;41.68;35.91;55.99;;
186;Laerm;55473;48.800;9.002;2024-01-07T08:42:00;45.23;36.52;59.11;;
186;Laerm;55473;48.800;9.002;2024-01-07T08:44:26;47.16;36.38;61.65;;
186;Laerm;55473;48.800;9.002;2024-01-07T08:46:52;46.67;37.70;64.63;;
186;Laerm;55473;48.800;9.002;2024-01-07T08:49:18;44.77;36.78;60.39;;
186;Laerm;55473;48.800;9.002;2024-01-07T08:51:44;44.03;36.33;60.94;;
186;Laerm;55473;48.800;9.002;2024-01-07T08:54:09;50.95;39.07;62.93;;
186;Laerm;55473;48.800;9.002;2024-01-07T08:56:35;52.95;44.45;62.43;;
186;Laerm;55473;48.800;9.002;2024-01-07T08:59:01;52.23;39.32;64.04;;
186;Laerm;55473;48.800;9.002;2024-01-07T09:01:27;46.99;37.59;60.81;;
186;Laerm;55473;48.800;9.002;2024-01-07T09:03:53;43.85;36.59;60.86;;
186;Laerm;55473;48.800;9.002;2024-01-07T09:06:19;43.68;35.83;58.70;;
186;Laerm;55473;48.800;9.002;2024-01-07T09:08:45;47.13;35.67;60.39;;
186;Laerm;55473;48.800;9.002;2024-01-07T09:11:11;47.41;36.30;63.38;;
186;Laerm;55473;48.800;9.002;2024-01-07T09:13:38;47.33;35.66;62.24;;
186;Laerm;55473;48.800;9.002;2024-01-07T09:16:04;49.15;37.19;67.25;;
186;Laerm;55473;48.800;9.002;2024-01-07T09:18:30;52.14;36.35;67.14;;
186;Laerm;55473;48.800;9.002;2024-01-07T09:20:56;48.95;36.36;64.97;;
186;Laerm;55473;48.800;9.002;2024-01-07T09:23:22;46.63;35.38;65.41;;
186;Laerm;55473;48.800;9.002;2024-01-07T09:25:48;44.66;35.63;63.25;;
186;Laerm;55473;48.800;9.002;2024-01-07T09:28:15;42.01;35.40;56.88;;
186;Laerm;55473;48.800;9.002;2024-01-07T09:30:41;44.09;35.25;62.24;;
186;Laerm;55473;48.800;9.002;2024-01-07T09:33:06;41.19;35.54;57.42;;
186;Laerm;55473;48.800;9.002;2024-01-07T09:35:32;41.99;37.20;62.31;;
186;Laerm;55473;48.800;9.002;2024-01-07T09:37:58;46.60;35.53;67.71;;
186;Laerm;55473;48.800;9.002;2024-01-07T09:40:24;41.34;35.13;57.41;;
186;Laerm;55473;48.800;9.002;2024-01-07T09:42:50;44.52;35.90;58.86;;
186;Laerm;55473;48.800;9.002;2024-01-07T09:45:18;46.31;36.26;66.04;;
186;Laerm;55473;48.800;9.002;2024-01-07T09:47:45;49.18;37.56;64.41;;
186;Laerm;55473;48.800;9.002;2024-01-07T09:50:12;46.43;36.28;61.62;;
186;Laerm;55473;48.800;9.002;2024-01-07T09:52:43;40.22;36.54;49.21;;
186;Laerm;55473;48.800;9.002;2024-01-07T09:55:37;41.96;35.51;60.74;;
186;Laerm;55473;48.800;9.002;2024-01-07T09:58:06;39.04;35.87;49.00;;
186;Laerm;55473;48.800;9.002;2024-01-07T10:00:32;42.33;36.58;57.17;;
186;Laerm;55473;48.800;9.002;2024-01-07T10:02:58;41.88;35.63;54.46;;
186;Laerm;55473;48.800;9.002;2024-01-07T10:05:24;41.80;35.73;58.45;;
186;Laerm;55473;48.800;9.002;2024-01-07T10:07:50;44.09;36.22;59.07;;
186;Laerm;55473;48.800;9.002;2024-01-07T10:10:19;48.95;36.40;64.29;;
186;Laerm;55473;48.800;9.002;2024-01-07T10:12:47;48.22;38.06;63.86;;
186;Laerm;55473;48.800;9.002;2024-01-07T10:15:13;48.34;38.56;64.42;;
186;Laerm;55473;48.800;9.002;2024-01-07T10:17:43;44.56;37.85;54.12;;
186;Laerm;55473;48.800;9.002;2024-01-07T10:20:09;46.27;37.53;64.40;;
186;Laerm;55473;48.800;9.002;2024-01-07T10:22:37;41.86;37.10;57.80;;
186;Laerm;55473;48.800;9.002;2024-01-07T10:25:06;44.72;36.17;68.07;;
186;Laerm;55473;48.800;9.002;2024-01-07T10:27:36;47.07;36.21;63.45;;
186;Laerm;55473;48.800;9.002;2024-01-07T10:30:04;45.84;36.57;63.07;;
186;Laerm;55473;48.800;9.002;2024-01-07T10:32:30;44.96;37.02;59.66;;
186;Laerm;55473;48.800;9.002;2024-01-07T10:35:12;42.55;36.46;57.30;;
186;Laerm;55473;48.800;9.002;2024-01-07T10:39:17;47.87;38.16;63.34;;
186;Laerm;55473;48.800;9.002;2024-01-07T10:42:01;49.26;38.07;65.67;;
186;Laerm;55473;48.800;9.002;2024-01-07T10:45:07;49.21;39.86;65.15;;
186;Laerm;55473;48.800;9.002;2024-01-07T10:48:06;48.37;38.62;62.79;;
186;Laerm;55473;48.800;9.002;2024-01-07T10:51:07;45.99;36.82;66.12;;
186;Laerm;55473;48.800;9.002;2024-01-07T10:54:10;42.91;36.58;65.92;;
186;Laerm;55473;48.800;9.002;2024-01-07T10:57:34;48.43;37.83;65.76;;
186;Laerm;55473;48.800;9.002;2024-01-07T11:00:41;45.12;38.50;62.55;;
186;Laerm;55473;48.800;9.002;2024-01-07T11:11:16;47.60;38.49;61.78;;
186;Laerm;55473;48.800;9.002;2024-01-07T11:14:35;45.61;36.88;67.80;;
186;Laerm;55473;48.800;9.002;2024-01-07T11:18:20;46.83;38.45;59.06;;
186;Laerm;55473;48.800;9.002;2024-01-07T11:21:28;45.74;37.16;62.39;;
186;Laerm;55473;48.800;9.002;2024-01-07T11:24:46;42.43;36.70;57.68;;
186;Laerm;55473;48.800;9.002;2024-01-07T11:27:51;41.64;36.16;56.06;;
186;Laerm;55473;48.800;9.002;2024-01-07T11:31:02;40.11;36.34;51.31;;
186;Laerm;55473;48.800;9.002;2024-01-07T11:34:56;42.09;36.70;61.73;;
186;Laerm;55473;48.800;9.002;2024-01-07T11:37:48;42.90;36.95;56.85;;
186;Laerm;55473;48.800;9.002;2024-01-07T11:40:40;43.38;37.14;62.95;;
186;Laerm;55473;48.800;9.002;2024-01-07T11:46:56;45.46;37.67;57.20;;
186;Laerm;55473;48.800;9.002;2024-01-07T11:53:08;44.43;37.39;56.62;;
186;Laerm;55473;48.800;9.002;2024-01-07T11:58:53;45.33;36.78;65.50;;
186;Laerm;55473;48.800;9.002;2024-01-07T12:01:45;46.73;36.30;68.25;;
186;Laerm;55473;48.800;9.002;2024-01-07T12:04:28;47.85;36.66;62.46;;
186;Laerm;55473;48.800;9.002;2024-01-07T12:07:44;50.91;37.60;78.54;;
186;Laerm;55473;48.800;9.002;2024-01-07T12:10:59;48.25;37.21;78.77;;
186;Laerm;55473;48.800;9.002;2024-01-07T12:13:43;53.78;39.25;73.46;;
186;Laerm;55473;48.800;9.002;2024-01-07T12:16:46;45.20;39.13;68.64;;
186;Laerm;55473;48.800;9.002;2024-01-07T12:19:42;46.87;37.79;63.83;;
186;Laerm;55473;48.800;9.002;2024-01-07T12:22:31;43.97;36.71;60.01;;
186;Laerm;55473;48.800;9.002;2024-01-07T12:25:47;48.69;36.21;61.91;;
186;Laerm;55473;48.800;9.002;2024-01-07T12:28:37;46.66;37.61;62.73;;
186;Laerm;55473;48.800;9.002;2024-01-07T12:31:35;48.32;37.34;62.37;;
186;Laerm;55473;48.800;9.002;2024-01-07T12:34:49;43.50;37.20;59.90;;
186;Laerm;55473;48.800;9.002;2024-01-07T12:37:36;50.08;38.49;67.53;;
186;Laerm;55473;48.800;9.002;2024-01-07T12:40:35;44.13;36.92;60.58;;
186;Laerm;55473;48.800;9.002;2024-01-07T12:43:29;45.93;37.19;66.19;;
186;Laerm;55473;48.800;9.002;2024-01-07T12:46:29;45.67;37.38;59.92;;
186;Laerm;55473;48.800;9.002;2024-01-07T12:49:19;46.70;39.16;58.78;;
186;Laerm;55473;48.800;9.002;2024-01-07T12:52:05;43.06;37.25;60.29;;
186;Laerm;55473;48.800;9.002;2024-01-07T12:54:52;46.97;36.89;61.73;;
186;Laerm;55473;48.800;9.002;2024-01-07T12:58:00;43.20;37.25;57.35;;
186;Laerm;55473;48.800;9.002;2024-01-07T13:00:45;46.17;37.27;60.98;;
186;Laerm;55473;48.800;9.002;2024-01-07T13:03:35;44.65;37.20;61.77;;
186;Laerm;55473;48.800;9.002;2024-01-07T13:06:37;44.18;37.84;63.26;;
186;Laerm;55473;48.800;9.002;2024-01-07T13:12:08;45.90;37.33;60.39;;
186;Laerm;55473;48.800;9.002;2024-01-07T13:14:51;45.17;38.17;58.02;;
186;Laerm;55473;48.800;9.002;2024-01-07T13:17:27;46.78;37.30;60.46;;
186;Laerm;55473;48.800;9.002;2024-01-07T13:20:25;44.05;37.73;55.85;;
186;Laerm;55473;48.800;9.002;2024-01-07T13:23:22;41.90;36.37;59.18;;
186;Laerm;55473;48.800;9.002;2024-01-07T13:26:37;40.43;36.10;55.97;;
186;Laerm;55473;48.800;9.002;2024-01-07T13:29:37;46.33;37.63;65.07;;
186;Laerm;55473;48.800;9.002;2024-01-07T13:32:22;46.91;37.63;63.84;;
186;Laerm;55473;48.800;9.002;2024-01-07T13:34:59;44.43;36.14;60.18;;
186;Laerm;55473;48.800;9.002;2024-01-07T13:37:53;44.63;36.99;61.32;;
186;Laerm;55473;48.800;9.002;2024-01-07T13:40:37;42.17;37.73;54.35;;
186;Laerm;55473;48.800;9.002;2024-01-07T13:43:48;46.60;38.79;58.68;;
186;Laerm;55473;48.800;9.002;2024-01-07T13:46:36;50.28;38.85;61.84;;
186;Laerm;55473;48.800;9.002;2024-01-07T13:49:42;45.72;38.45;60.80;;
186;Laerm;55473;48.800;9.002;2024-01-07T13:52:35;45.48;38.11;60.40;;
186;Laerm;55473;48.800;9.002;2024-01-07T13:55:55;45.03;38.66;62.10;;
186;Laerm;55473;48.800;9.002;2024-01-07T13:58:36;42.19;37.77;56.08;;
186;Laerm;55473;48.800;9.002;2024-01-07T14:01:24;41.87;35.94;51.86;;
186;Laerm;55473;48.800;9.002;2024-01-07T14:04:14;43.21;36.59;58.75;;
186;Laerm;55473;48.800;9.002;2024-01-07T14:07:10;46.34;38.00;61.77;;
186;Laerm;55473;48.800;9.002;2024-01-07T14:10:00;45.48;38.32;62.94;;
186;Laerm;55473;48.800;9.002;2024-01-07T14:13:07;48.43;39.90;66.95;;
186;Laerm;55473;48.800;9.002;2024-01-07T14:16:33;45.03;38.95;65.07;;
186;Laerm;55473;48.800;9.002;2024-01-07T14:19:44;44.48;39.02;55.61;;
186;Laerm;55473;48.800;9.002;2024-01-07T14:22:47;43.10;37.56;60.01;;
186;Laerm;55473;48.800;9.002;2024-01-07T14:25:35;45.72;37.00;62.75;;
186;Laerm;55473;48.800;9.002;2024-01-07T14:28:23;45.36;36.89;61.78;;
186;Laerm;55473;48.800;9.002;2024-01-07T14:31:02;44.16;37.94;58.43;;
186;Laerm;55473;48.800;9.002;2024-01-07T14:34:02;46.98;37.35;64.55;;
186;Laerm;55473;48.800;9.002;2024-01-07T14:36:52;47.06;38.55;67.14;;
186;Laerm;55473;48.800;9.002;2024-01-07T14:39:17;41.30;38.00;48.41;;
186;Laerm;55473;48.800;9.002;2024-01-07T14:41:44;41.93;37.75;55.18;;
186;Laerm;55473;48.800;9.002;2024-01-07T14:44:12;47.82;37.95;62.51;;
186;Laerm;55473;48.800;9.002;2024-01-07T14:46:38;47.45;39.38;63.93;;
186;Laerm;55473;48.800;9.002;2024-01-07T14:49:06;47.83;39.44;59.42;;
186;Laerm;55473;48.800;9.002;2024-01-07T14:51:32;46.80;37.79;65.16;;
186;Laerm;55473;48.800;9.002;2024-01-07T14:53:58;50.68;39.49;68.59;;
186;Laerm;55473;48.800;9.002;2024-01-07T14:56:24;42.51;37.19;59.68;;
186;Laerm;55473;48.800;9.002;2024-01-07T14:58:50;43.20;38.43;59.85;;
186;Laerm;55473;48.800;9.002;2024-01-07T15:01:16;46.56;37.80;66.36;;
186;Laerm;55473;48.800;9.002;2024-01-07T15:03:42;43.95;37.99;58.90;;
186;Laerm;55473;48.800;9.002;2024-01-07T15:06:08;42.42;36.95;56.78;;